sensor_id;sensor_type;location;lat;lon;timestamp;pressure;altitude;pressure_sealevel;temperature;humidity
50592;BME280;36548;50.506;30.834;2023-07-13T00:00:38;99812.58;;;21.34;51.07
50592;BME280;36548;50.506;30.834;2023-07-13T00:01:53;99809.92;;;21.49;50.84
50592;BME280;36548;50.506;30.834;2023-07-13T00:03:03;99811.69;;;21.42;50.71
50592;BME280;36548;50.506;30.834;2023-07-13T00:04:21;99812.98;;;21.54;50.49
50592;BME280;36548;50.506;30.834;2023-07-13T00:05:31;99813.18;;;21.44;50.34
50592;BME280;36548;50.506;30.834;2023-07-13T00:06:41;99812.16;;;21.45;50.34
50592;BME280;36548;50.506;30.834;2023-07-13T00:08:00;99803.20;;;21.60;50.25
50592;BME280;36548;50.506;30.834;2023-07-13T00:09:12;99809.06;;;21.49;50.11
50592;BME280;36548;50.506;30.834;2023-07-13T00:10:22;99805.30;;;21.50;50.16
50592;BME280;36548;50.506;30.834;2023-07-13T00:11:31;99798.67;;;21.52;50.25
50592;BME280;36548;50.506;30.834;2023-07-13T00:12:42;99797.64;;;21.53;50.25
50592;BME280;36548;50.506;30.834;2023-07-13T00:13:58;99788.34;;;21.62;50.42
50592;BME280;36548;50.506;30.834;2023-07-13T00:15:18;99792.19;;;21.53;50.42
50592;BME280;36548;50.506;30.834;2023-07-13T00:16:34;99789.27;;;21.55;50.66
50592;BME280;36548;50.506;30.834;2023-07-13T00:17:50;99775.18;;;21.66;50.41
50592;BME280;36548;50.506;30.834;2023-07-13T00:19:01;99779.37;;;21.54;50.24
50592;BME280;36548;50.506;30.834;2023-07-13T00:20:16;99774.03;;;21.60;50.67
50592;BME280;36548;50.506;30.834;2023-07-13T00:21:26;99778.37;;;21.46;50.49
50592;BME280;36548;50.506;30.834;2023-07-13T00:22:42;99769.62;;;21.51;51.10
50592;BME280;36548;50.506;30.834;2023-07-13T00:23:51;99778.61;;;21.37;51.33
50592;BME280;36548;50.506;30.834;2023-07-13T00:25:10;99776.84;;;21.44;51.57
50592;BME280;36548;50.506;30.834;2023-07-13T00:26:20;99776.41;;;21.32;51.52
50592;BME280;36548;50.506;30.834;2023-07-13T00:27:31;99769.45;;;21.29;51.44
50592;BME280;36548;50.506;30.834;2023-07-13T00:28:42;99768.30;;;21.24;51.65
50592;BME280;36548;50.506;30.834;2023-07-13T00:29:58;99767.38;;;21.32;52.18
50592;BME280;36548;50.506;30.834;2023-07-13T00:31:10;99764.37;;;21.18;52.14
50592;BME280;36548;50.506;30.834;2023-07-13T00:32:19;99763.91;;;21.15;51.71
50592;BME280;36548;50.506;30.834;2023-07-13T00:33:37;99755.17;;;21.19;52.07
50592;BME280;36548;50.506;30.834;2023-07-13T00:34:46;99764.50;;;21.02;52.16
50592;BME280;36548;50.506;30.834;2023-07-13T00:35:58;99757.20;;;20.94;52.42
50592;BME280;36548;50.506;30.834;2023-07-13T00:38:18;99751.45;;;20.81;52.83
50592;BME280;36548;50.506;30.834;2023-07-13T00:39:29;99752.00;;;20.76;52.81
50592;BME280;36548;50.506;30.834;2023-07-13T00:40:40;99750.00;;;20.70;53.07
50592;BME280;36548;50.506;30.834;2023-07-13T00:42:02;99745.02;;;20.73;53.31
50592;BME280;36548;50.506;30.834;2023-07-13T00:43:17;99746.77;;;20.58;53.38
50592;BME280;36548;50.506;30.834;2023-07-13T00:44:34;99738.04;;;20.63;53.69
50592;BME280;36548;50.506;30.834;2023-07-13T00:46:59;99743.91;;;20.43;54.02
50592;BME280;36548;50.506;30.834;2023-07-13T00:49:39;99740.17;;;20.44;54.44
50592;BME280;36548;50.506;30.834;2023-07-13T00:50:52;99742.59;;;20.31;54.59
50592;BME280;36548;50.506;30.834;2023-07-13T00:52:09;99733.55;;;20.38;54.72
50592;BME280;36548;50.506;30.834;2023-07-13T00:53:19;99743.96;;;20.26;54.51
50592;BME280;36548;50.506;30.834;2023-07-13T00:54:55;99743.10;;;20.34;54.88
50592;BME280;36548;50.506;30.834;2023-07-13T00:56:06;99737.16;;;20.22;54.84
50592;BME280;36548;50.506;30.834;2023-07-13T00:57:21;99738.01;;;20.31;54.86
50592;BME280;36548;50.506;30.834;2023-07-13T00:58:31;99742.97;;;20.19;55.08
50592;BME280;36548;50.506;30.834;2023-07-13T00:59:54;99744.66;;;20.29;55.18
50592;BME280;36548;50.506;30.834;2023-07-13T01:01:04;99743.31;;;20.16;55.31
50592;BME280;36548;50.506;30.834;2023-07-13T01:02:26;99746.69;;;20.26;55.43
50592;BME280;36548;50.506;30.834;2023-07-13T01:03:37;99747.93;;;20.16;55.38
50592;BME280;36548;50.506;30.834;2023-07-13T01:04:59;99747.91;;;20.24;55.47
50592;BME280;36548;50.506;30.834;2023-07-13T01:06:12;99740.25;;;20.11;55.54
50592;BME280;36548;50.506;30.834;2023-07-13T01:07:22;99742.14;;;20.10;55.65
50592;BME280;36548;50.506;30.834;2023-07-13T01:08:32;99743.16;;;20.09;55.62
50592;BME280;36548;50.506;30.834;2023-07-13T01:09:42;99743.34;;;20.08;55.78
50592;BME280;36548;50.506;30.834;2023-07-13T01:10:54;99736.18;;;20.07;55.67
50592;BME280;36548;50.506;30.834;2023-07-13T01:12:05;99730.91;;;20.05;55.74
50592;BME280;36548;50.506;30.834;2023-07-13T01:13:15;99739.25;;;20.04;55.79
50592;BME280;36548;50.506;30.834;2023-07-13T01:14:31;99735.68;;;20.12;56.11
50592;BME280;36548;50.506;30.834;2023-07-13T01:15:43;99735.35;;;19.98;56.18
50592;BME280;36548;50.506;30.834;2023-07-13T01:16:59;99730.55;;;20.08;56.25
50592;BME280;36548;50.506;30.834;2023-07-13T01:18:15;99729.06;;;19.98;56.15
50592;BME280;36548;50.506;30.834;2023-07-13T01:19:36;99730.91;;;20.05;56.32
50592;BME280;36548;50.506;30.834;2023-07-13T01:20:52;99738.78;;;19.92;56.42
50592;BME280;36548;50.506;30.834;2023-07-13T01:22:11;99732.45;;;20.00;56.60
50592;BME280;36548;50.506;30.834;2023-07-13T01:23:21;99736.55;;;19.87;56.65
50592;BME280;36548;50.506;30.834;2023-07-13T01:24:38;99732.80;;;19.97;56.99
50592;BME280;36548;50.506;30.834;2023-07-13T01:25:48;99727.02;;;19.83;56.87
50592;BME280;36548;50.506;30.834;2023-07-13T01:27:13;99730.44;;;19.93;57.01
50592;BME280;36548;50.506;30.834;2023-07-13T01:28:25;99735.55;;;19.80;57.26
50592;BME280;36548;50.506;30.834;2023-07-13T01:29:45;99724.30;;;19.91;57.11
50592;BME280;36548;50.506;30.834;2023-07-13T01:30:58;99733.80;;;19.79;57.27
50592;BME280;36548;50.506;30.834;2023-07-13T01:32:13;99736.38;;;19.81;57.29
50592;BME280;36548;50.506;30.834;2023-07-13T01:33:24;99729.09;;;19.81;57.22
50592;BME280;36548;50.506;30.834;2023-07-13T01:34:40;99721.39;;;19.93;57.37
50592;BME280;36548;50.506;30.834;2023-07-13T01:35:51;99723.28;;;19.84;57.43
50592;BME280;36548;50.506;30.834;2023-07-13T01:37:02;99719.37;;;19.87;57.19
50592;BME280;36548;50.506;30.834;2023-07-13T01:38:20;99719.67;;;20.00;57.08
50592;BME280;36548;50.506;30.834;2023-07-13T01:39:29;99728.03;;;19.90;56.77
50592;BME280;36548;50.506;30.834;2023-07-13T01:40:45;99724.28;;;20.00;57.12
50592;BME280;36548;50.506;30.834;2023-07-13T01:41:54;99732.81;;;19.88;57.29
50592;BME280;36548;50.506;30.834;2023-07-13T01:43:06;99731.98;;;19.88;57.29
50592;BME280;36548;50.506;30.834;2023-07-13T01:44:15;99732.64;;;19.90;57.16
50592;BME280;36548;50.506;30.834;2023-07-13T01:45:31;99724.10;;;20.01;57.15
50592;BME280;36548;50.506;30.834;2023-07-13T01:46:40;99737.25;;;19.89;57.08
50592;BME280;36548;50.506;30.834;2023-07-13T01:47:49;99736.38;;;19.89;56.96
50592;BME280;36548;50.506;30.834;2023-07-13T01:49:05;99732.63;;;19.98;57.25
50592;BME280;36548;50.506;30.834;2023-07-13T01:50:16;99726.67;;;19.86;57.34
50592;BME280;36548;50.506;30.834;2023-07-13T01:51:32;99728.02;;;19.99;57.36
50592;BME280;36548;50.506;30.834;2023-07-13T01:52:41;99727.37;;;19.88;57.42
50592;BME280;36548;50.506;30.834;2023-07-13T01:53:51;99733.66;;;19.89;57.58
50592;BME280;36548;50.506;30.834;2023-07-13T01:55:00;99736.20;;;19.90;57.44
50592;BME280;36548;50.506;30.834;2023-07-13T01:56:10;99739.63;;;19.92;57.51
50592;BME280;36548;50.506;30.834;2023-07-13T01:57:27;99730.24;;;20.03;57.21
50592;BME280;36548;50.506;30.834;2023-07-13T01:58:35;99735.19;;;19.91;57.24
50592;BME280;36548;50.506;30.834;2023-07-13T01:59:51;99728.53;;;20.02;57.51
50592;BME280;36548;50.506;30.834;2023-07-13T02:01:01;99725.30;;;19.90;57.39
50592;BME280;36548;50.506;30.834;2023-07-13T02:02:10;99729.08;;;19.89;57.60
50592;BME280;36548;50.506;30.834;2023-07-13T02:03:25;99727.70;;;20.02;57.70
50592;BME280;36548;50.506;30.834;2023-07-13T02:04:36;99725.30;;;19.90;57.65
50592;BME280;36548;50.506;30.834;2023-07-13T02:05:46;99733.16;;;19.93;57.60
50592;BME280;36548;50.506;30.834;2023-07-13T02:07:01;99724.09;;;20.09;57.46
50592;BME280;36548;50.506;30.834;2023-07-13T02:08:11;99728.53;;;20.02;57.22
50592;BME280;36548;50.506;30.834;2023-07-13T02:09:27;99721.70;;;20.15;57.17
50592;BME280;36548;50.506;30.834;2023-07-13T02:10:38;99726.33;;;20.06;57.12
50592;BME280;36548;50.506;30.834;2023-07-13T02:11:47;99735.16;;;20.08;57.22
50592;BME280;36548;50.506;30.834;2023-07-13T02:12:58;99736.88;;;20.09;57.15
50592;BME280;36548;50.506;30.834;2023-07-13T02:14:08;99727.83;;;20.08;57.15
50592;BME280;36548;50.506;30.834;2023-07-13T02:15:24;99720.33;;;20.19;57.25
50592;BME280;36548;50.506;30.834;2023-07-13T02:16:34;99729.53;;;20.09;57.08
50592;BME280;36548;50.506;30.834;2023-07-13T02:17:50;99719.45;;;20.18;57.14
50592;BME280;36548;50.506;30.834;2023-07-13T02:18:59;99730.55;;;20.08;57.09
50592;BME280;36548;50.506;30.834;2023-07-13T02:20:16;99726.97;;;20.16;57.16
50592;BME280;36548;50.506;30.834;2023-07-13T02:21:26;99730.06;;;20.05;57.14
50592;BME280;36548;50.506;30.834;2023-07-13T02:22:42;99728.16;;;20.14;57.27
50592;BME280;36548;50.506;30.834;2023-07-13T02:23:52;99725.98;;;20.01;57.34
50592;BME280;36548;50.506;30.834;2023-07-13T02:25:03;99726.16;;;19.99;57.46
50592;BME280;36548;50.506;30.834;2023-07-13T02:26:15;99723.44;;;19.99;57.31
50592;BME280;36548;50.506;30.834;2023-07-13T02:27:33;99717.28;;;20.05;57.63
50592;BME280;36548;50.506;30.834;2023-07-13T02:28:44;99724.12;;;19.93;57.64
50592;BME280;36548;50.506;30.834;2023-07-13T02:30:07;99724.80;;;20.03;57.72
50592;BME280;36548;50.506;30.834;2023-07-13T02:31:17;99726.00;;;19.92;57.51
50592;BME280;36548;50.506;30.834;2023-07-13T02:32:33;99723.27;;;20.01;57.68
50592;BME280;36548;50.506;30.834;2023-07-13T02:33:43;99724.47;;;19.90;57.68
50592;BME280;36548;50.506;30.834;2023-07-13T02:34:59;99717.48;;;19.87;57.73
50592;BME280;36548;50.506;30.834;2023-07-13T02:36:12;99717.66;;;19.86;57.79
50592;BME280;36548;50.506;30.834;2023-07-13T02:37:29;99715.59;;;19.96;57.89
50592;BME280;36548;50.506;30.834;2023-07-13T02:38:38;99720.56;;;19.84;57.89
50592;BME280;36548;50.506;30.834;2023-07-13T02:39:48;99714.28;;;19.84;58.05
50592;BME280;36548;50.506;30.834;2023-07-13T02:41:05;99708.64;;;19.93;58.12
50592;BME280;36548;50.506;30.834;2023-07-13T02:42:15;99711.55;;;19.84;58.00
50592;BME280;36548;50.506;30.834;2023-07-13T02:43:31;99709.30;;;19.96;58.17
50592;BME280;36548;50.506;30.834;2023-07-13T02:44:40;99710.51;;;19.85;58.12
50592;BME280;36548;50.506;30.834;2023-07-13T02:45:56;99701.97;;;19.96;58.05
50592;BME280;36548;50.506;30.834;2023-07-13T02:47:07;99716.83;;;19.85;58.03
50592;BME280;36548;50.506;30.834;2023-07-13T02:48:22;99708.29;;;19.97;58.36
50592;BME280;36548;50.506;30.834;2023-07-13T02:49:32;99715.78;;;19.86;58.38
50592;BME280;36548;50.506;30.834;2023-07-13T02:50:44;99714.59;;;19.89;58.37
50592;BME280;36548;50.506;30.834;2023-07-13T02:51:53;99719.72;;;19.92;58.39
50592;BME280;36548;50.506;30.834;2023-07-13T02:53:08;99725.10;;;20.08;58.38
50592;BME280;36548;50.506;30.834;2023-07-13T02:54:18;99730.42;;;20.02;58.08
50592;BME280;36548;50.506;30.834;2023-07-13T02:55:34;99722.71;;;20.14;58.01
50592;BME280;36548;50.506;30.834;2023-07-13T02:56:44;99729.05;;;20.06;58.18
50592;BME280;36548;50.506;30.834;2023-07-13T02:58:00;99725.28;;;20.07;57.95
50592;BME280;36548;50.506;30.834;2023-07-13T02:59:10;99722.55;;;20.07;58.00
50592;BME280;36548;50.506;30.834;2023-07-13T03:00:27;99728.50;;;20.19;58.03
50592;BME280;36548;50.506;30.834;2023-07-13T03:01:36;99734.45;;;20.14;58.35
50592;BME280;36548;50.506;30.834;2023-07-13T03:02:53;99722.31;;;20.33;58.28
50592;BME280;36548;50.506;30.834;2023-07-13T03:04:03;99722.49;;;20.32;58.16
50592;BME280;36548;50.506;30.834;2023-07-13T03:05:16;99721.92;;;20.44;58.33
50592;BME280;36548;50.506;30.834;2023-07-13T03:06:33;99711.64;;;20.71;58.07
50592;BME280;36548;50.506;30.834;2023-07-13T03:07:43;99717.38;;;20.76;57.84
50592;BME280;36548;50.506;30.834;2023-07-13T03:08:59;99713.13;;;21.05;57.27
50592;BME280;36548;50.506;30.834;2023-07-13T03:10:10;99716.55;;;21.07;56.69
50592;BME280;36548;50.506;30.834;2023-07-13T03:11:23;99717.64;;;21.21;56.75
50592;BME280;36548;50.506;30.834;2023-07-13T03:12:38;99714.55;;;21.48;55.71
50592;BME280;36548;50.506;30.834;2023-07-13T03:13:50;99717.73;;;21.51;55.92
50592;BME280;36548;50.506;30.834;2023-07-13T03:15:06;99712.39;;;21.81;55.31
50592;BME280;36548;50.506;30.834;2023-07-13T03:16:17;99712.86;;;21.85;54.85
50592;BME280;36548;50.506;30.834;2023-07-13T03:17:32;99701.30;;;22.12;54.04
50592;BME280;36548;50.506;30.834;2023-07-13T03:18:45;99710.17;;;22.14;53.57
50592;BME280;36548;50.506;30.834;2023-07-13T03:20:00;99709.05;;;22.39;52.89
50592;BME280;36548;50.506;30.834;2023-07-13T03:21:10;99706.32;;;22.39;52.29
50592;BME280;36548;50.506;30.834;2023-07-13T03:22:25;99707.92;;;22.63;52.27
50592;BME280;36548;50.506;30.834;2023-07-13T03:23:35;99712.91;;;22.59;51.59
50592;BME280;36548;50.506;30.834;2023-07-13T03:24:57;99707.86;;;22.78;51.34
50592;BME280;36548;50.506;30.834;2023-07-13T03:26:15;99709.31;;;22.74;51.19
50592;BME280;36548;50.506;30.834;2023-07-13T03:27:32;99710.57;;;22.93;51.02
50592;BME280;36548;50.506;30.834;2023-07-13T03:28:42;99712.86;;;22.89;50.77
50592;BME280;36548;50.506;30.834;2023-07-13T03:29:54;99710.02;;;22.97;50.59
50592;BME280;36548;50.506;30.834;2023-07-13T03:31:13;99709.21;;;23.19;50.15
50592;BME280;36548;50.506;30.834;2023-07-13T03:32:23;99711.67;;;23.13;49.86
50592;BME280;36548;50.506;30.834;2023-07-13T03:33:38;99710.39;;;23.31;49.73
50592;BME280;36548;50.506;30.834;2023-07-13T03:34:48;99712.22;;;23.24;49.93
50592;BME280;36548;50.506;30.834;2023-07-13T03:36:07;99709.86;;;23.42;49.72
50592;BME280;36548;50.506;30.834;2023-07-13T03:37:17;99718.67;;;23.38;49.42
50592;BME280;36548;50.506;30.834;2023-07-13T03:38:33;99713.10;;;23.53;48.86
50592;BME280;36548;50.506;30.834;2023-07-13T03:39:43;99707.32;;;23.41;48.78
50592;BME280;36548;50.506;30.834;2023-07-13T03:41:00;99708.86;;;23.50;48.76
50592;BME280;36548;50.506;30.834;2023-07-13T03:42:10;99708.36;;;23.40;48.48
50592;BME280;36548;50.506;30.834;2023-07-13T03:43:26;99703.21;;;23.52;48.58
50592;BME280;36548;50.506;30.834;2023-07-13T03:44:36;99710.50;;;23.44;48.83
50592;BME280;36548;50.506;30.834;2023-07-13T03:45:46;99711.80;;;23.48;48.76
50592;BME280;36548;50.506;30.834;2023-07-13T03:46:57;99709.99;;;23.56;48.92
50592;BME280;36548;50.506;30.834;2023-07-13T03:48:07;99711.52;;;23.65;48.66
50592;BME280;36548;50.506;30.834;2023-07-13T03:49:24;99707.46;;;23.82;48.29
50592;BME280;36548;50.506;30.834;2023-07-13T03:50:34;99707.66;;;23.81;48.19
50592;BME280;36548;50.506;30.834;2023-07-13T03:51:49;99698.36;;;24.04;47.70
50592;BME280;36548;50.506;30.834;2023-07-13T03:53:02;99703.21;;;24.02;47.79
50592;BME280;36548;50.506;30.834;2023-07-13T03:54:12;99704.14;;;24.15;47.40
50592;BME280;36548;50.506;30.834;2023-07-13T03:55:28;99699.01;;;24.41;47.25
50592;BME280;36548;50.506;30.834;2023-07-13T03:56:38;99701.34;;;24.44;47.22
50592;BME280;36548;50.506;30.834;2023-07-13T03:57:53;99698.88;;;24.56;46.92
50592;BME280;36548;50.506;30.834;2023-07-13T03:59:09;99688.23;;;24.81;46.43
50592;BME280;36548;50.506;30.834;2023-07-13T04:00:19;99693.93;;;24.79;46.27
50592;BME280;36548;50.506;30.834;2023-07-13T04:01:35;99691.88;;;25.01;46.02
50592;BME280;36548;50.506;30.834;2023-07-13T04:02:44;99695.47;;;25.02;45.71
50592;BME280;36548;50.506;30.834;2023-07-13T04:04:01;99699.95;;;25.30;45.52
50592;BME280;36548;50.506;30.834;2023-07-13T04:05:13;99701.66;;;25.31;44.93
50592;BME280;36548;50.506;30.834;2023-07-13T04:06:34;99706.76;;;25.54;44.65
50592;BME280;36548;50.506;30.834;2023-07-13T04:07:45;99703.39;;;25.52;44.60
50592;BME280;36548;50.506;30.834;2023-07-13T04:08:58;99702.32;;;25.60;44.21
50592;BME280;36548;50.506;30.834;2023-07-13T04:10:34;99697.05;;;25.85;43.79
50592;BME280;36548;50.506;30.834;2023-07-13T04:11:44;99705.70;;;25.82;43.65
50592;BME280;36548;50.506;30.834;2023-07-13T04:13:02;99698.31;;;26.02;43.58
50592;BME280;36548;50.506;30.834;2023-07-13T04:14:12;99707.20;;;26.05;43.52
50592;BME280;36548;50.506;30.834;2023-07-13T04:15:30;99701.66;;;26.25;43.01
50592;BME280;36548;50.506;30.834;2023-07-13T04:16:41;99710.78;;;26.18;42.74
50592;BME280;36548;50.506;30.834;2023-07-13T04:17:58;99698.23;;;26.36;42.89
50592;BME280;36548;50.506;30.834;2023-07-13T04:19:08;99713.09;;;26.28;42.77
50592;BME280;36548;50.506;30.834;2023-07-13T04:20:25;99710.32;;;26.35;42.33
50592;BME280;36548;50.506;30.834;2023-07-13T04:21:34;99712.66;;;26.25;42.96
50592;BME280;36548;50.506;30.834;2023-07-13T04:22:50;99706.48;;;26.36;42.46
50592;BME280;36548;50.506;30.834;2023-07-13T04:23:59;99712.66;;;26.25;42.28
50592;BME280;36548;50.506;30.834;2023-07-13T04:25:15;99702.06;;;26.35;42.67
50592;BME280;36548;50.506;30.834;2023-07-13T04:26:25;99709.28;;;26.29;42.69
50592;BME280;36548;50.506;30.834;2023-07-13T04:27:34;99708.62;;;26.34;42.43
50592;BME280;36548;50.506;30.834;2023-07-13T04:29:09;99707.48;;;26.55;41.91
50592;BME280;36548;50.506;30.834;2023-07-13T04:30:19;99701.83;;;26.43;41.51
50592;BME280;36548;50.506;30.834;2023-07-13T04:31:29;99694.63;;;26.42;41.63
50592;BME280;36548;50.506;30.834;2023-07-13T04:32:45;99704.70;;;26.68;41.30
50592;BME280;36548;50.506;30.834;2023-07-13T04:33:54;99696.04;;;26.58;40.77
50592;BME280;36548;50.506;30.834;2023-07-13T04:35:04;99694.56;;;26.55;40.77
50592;BME280;36548;50.506;30.834;2023-07-13T04:36:20;99689.24;;;26.74;41.28
50592;BME280;36548;50.506;30.834;2023-07-13T04:37:30;99693.69;;;26.75;41.17
50592;BME280;36548;50.506;30.834;2023-07-13T04:38:39;99693.44;;;26.83;41.15
50592;BME280;36548;50.506;30.834;2023-07-13T04:39:48;99698.48;;;26.93;40.82
50592;BME280;36548;50.506;30.834;2023-07-13T04:41:05;99690.14;;;27.00;39.84
50592;BME280;36548;50.506;30.834;2023-07-13T04:42:16;99698.64;;;26.98;40.29
50592;BME280;36548;50.506;30.834;2023-07-13T04:43:27;99691.81;;;27.08;40.17
50592;BME280;36548;50.506;30.834;2023-07-13T04:44:37;99685.20;;;27.15;39.98
50592;BME280;36548;50.506;30.834;2023-07-13T04:47:21;99681.05;;;27.38;39.82
50592;BME280;36548;50.506;30.834;2023-07-13T04:48:31;99677.02;;;27.34;39.90
50592;BME280;36548;50.506;30.834;2023-07-13T04:49:41;99687.47;;;27.25;39.18
50592;BME280;36548;50.506;30.834;2023-07-13T04:50:57;99676.55;;;27.44;39.35
50592;BME280;36548;50.506;30.834;2023-07-13T04:52:08;99694.19;;;27.36;39.19
50592;BME280;36548;50.506;30.834;2023-07-13T04:53:16;99684.18;;;27.42;39.11
50592;BME280;36548;50.506;30.834;2023-07-13T04:54:33;99694.33;;;27.48;38.88
50592;BME280;36548;50.506;30.834;2023-07-13T04:55:42;99699.38;;;27.51;39.00
50592;BME280;36548;50.506;30.834;2023-07-13T04:56:58;99704.06;;;27.76;38.70
50592;BME280;36548;50.506;30.834;2023-07-13T04:58:07;99707.66;;;27.76;38.21
50592;BME280;36548;50.506;30.834;2023-07-13T04:59:16;99705.70;;;27.83;38.10
50592;BME280;36548;50.506;30.834;2023-07-13T05:00:26;99708.15;;;27.92;38.15
50592;BME280;36548;50.506;30.834;2023-07-13T05:01:43;99702.25;;;28.13;38.21
50592;BME280;36548;50.506;30.834;2023-07-13T05:02:55;99706.47;;;28.16;38.19
50592;BME280;36548;50.506;30.834;2023-07-13T05:04:05;99708.94;;;28.24;37.97
50592;BME280;36548;50.506;30.834;2023-07-13T05:05:15;99712.00;;;28.34;37.98
50592;BME280;36548;50.506;30.834;2023-07-13T05:06:24;99714.15;;;28.51;37.41
50592;BME280;36548;50.506;30.834;2023-07-13T05:07:40;99715.86;;;28.70;37.53
50592;BME280;36548;50.506;30.834;2023-07-13T05:08:49;99721.25;;;28.65;37.15
50592;BME280;36548;50.506;30.834;2023-07-13T05:10:05;99709.27;;;28.71;36.46
50592;BME280;36548;50.506;30.834;2023-07-13T05:11:14;99718.77;;;28.57;36.28
50592;BME280;36548;50.506;30.834;2023-07-13T05:12:30;99714.03;;;28.64;36.49
50592;BME280;36548;50.506;30.834;2023-07-13T05:13:40;99717.54;;;28.53;36.51
50592;BME280;36548;50.506;30.834;2023-07-13T05:14:56;99712.73;;;28.67;36.54
50592;BME280;36548;50.506;30.834;2023-07-13T05:16:06;99716.00;;;28.57;36.76
50592;BME280;36548;50.506;30.834;2023-07-13T05:17:22;99719.09;;;28.67;36.53
50592;BME280;36548;50.506;30.834;2023-07-13T05:18:33;99712.61;;;28.55;36.61
50592;BME280;36548;50.506;30.834;2023-07-13T05:19:49;99719.48;;;28.71;36.58
50592;BME280;36548;50.506;30.834;2023-07-13T05:21:04;99716.92;;;28.69;36.44
50592;BME280;36548;50.506;30.834;2023-07-13T05:22:20;99717.39;;;28.85;36.48
50592;BME280;36548;50.506;30.834;2023-07-13T05:23:31;99721.69;;;28.81;36.68
50592;BME280;36548;50.506;30.834;2023-07-13T05:24:48;99704.59;;;29.02;36.43
50592;BME280;36548;50.506;30.834;2023-07-13T05:25:57;99714.91;;;28.95;36.20
50592;BME280;36548;50.506;30.834;2023-07-13T05:27:14;99709.53;;;29.00;36.04
50592;BME280;36548;50.506;30.834;2023-07-13T05:28:23;99710.92;;;28.91;36.35
50592;BME280;36548;50.506;30.834;2023-07-13T05:29:38;99707.83;;;28.99;36.09
50592;BME280;36548;50.506;30.834;2023-07-13T05:30:49;99711.39;;;28.88;36.19
50592;BME280;36548;50.506;30.834;2023-07-13T05:32:05;99702.78;;;28.96;36.04
50592;BME280;36548;50.506;30.834;2023-07-13T05:33:14;99712.85;;;28.90;36.04
50592;BME280;36548;50.506;30.834;2023-07-13T05:34:30;99705.34;;;29.09;36.20
50592;BME280;36548;50.506;30.834;2023-07-13T05:35:39;99708.10;;;29.09;36.08
50592;BME280;36548;50.506;30.834;2023-07-13T05:36:55;99704.70;;;29.26;35.38
50592;BME280;36548;50.506;30.834;2023-07-13T05:38:04;99703.11;;;29.18;35.73
50592;BME280;36548;50.506;30.834;2023-07-13T05:39:20;99702.39;;;29.23;35.25
50592;BME280;36548;50.506;30.834;2023-07-13T05:40:29;99705.58;;;29.08;35.50
50592;BME280;36548;50.506;30.834;2023-07-13T05:41:45;99699.95;;;29.15;35.42
50592;BME280;36548;50.506;30.834;2023-07-13T05:42:55;99697.17;;;29.03;35.25
50592;BME280;36548;50.506;30.834;2023-07-13T05:44:10;99696.06;;;29.04;35.48
50592;BME280;36548;50.506;30.834;2023-07-13T05:45:20;99699.55;;;28.99;35.84
50592;BME280;36548;50.506;30.834;2023-07-13T05:46:35;99699.37;;;29.13;35.58
50592;BME280;36548;50.506;30.834;2023-07-13T05:47:44;99701.59;;;29.04;35.40
50592;BME280;36548;50.506;30.834;2023-07-13T05:48:59;99688.91;;;29.15;35.27
50592;BME280;36548;50.506;30.834;2023-07-13T05:50:09;99699.78;;;28.98;35.26
50592;BME280;36548;50.506;30.834;2023-07-13T05:51:19;99698.65;;;28.87;35.52
50592;BME280;36548;50.506;30.834;2023-07-13T05:52:29;99694.52;;;28.78;35.79
50592;BME280;36548;50.506;30.834;2023-07-13T05:53:38;99699.67;;;28.74;35.99
50592;BME280;36548;50.506;30.834;2023-07-13T05:54:53;99691.31;;;28.81;35.80
50592;BME280;36548;50.506;30.834;2023-07-13T05:56:03;99693.64;;;28.65;35.98
50592;BME280;36548;50.506;30.834;2023-07-13T05:57:18;99693.16;;;28.68;36.14
50592;BME280;36548;50.506;30.834;2023-07-13T05:58:30;99701.41;;;28.50;36.51
50592;BME280;36548;50.506;30.834;2023-07-13T05:59:46;99706.41;;;28.41;36.81
50592;BME280;36548;50.506;30.834;2023-07-13T06:01:04;99713.22;;;28.20;36.79
50592;BME280;36548;50.506;30.834;2023-07-13T06:02:19;99710.23;;;28.21;36.79
50592;BME280;36548;50.506;30.834;2023-07-13T06:03:29;99714.04;;;28.02;36.82
50592;BME280;36548;50.506;30.834;2023-07-13T06:04:38;99714.04;;;28.02;36.85
50592;BME280;36548;50.506;30.834;2023-07-13T06:06:01;99715.22;;;28.13;37.04
50592;BME280;36548;50.506;30.834;2023-07-13T06:07:10;99716.59;;;27.97;37.13
50592;BME280;36548;50.506;30.834;2023-07-13T06:08:45;99718.75;;;27.95;37.30
50592;BME280;36548;50.506;30.834;2023-07-13T06:09:55;99721.84;;;27.80;37.42
50592;BME280;36548;50.506;30.834;2023-07-13T06:11:09;99728.09;;;27.68;37.58
50592;BME280;36548;50.506;30.834;2023-07-13T06:12:31;99718.53;;;27.71;37.83
50592;BME280;36548;50.506;30.834;2023-07-13T06:13:40;99725.20;;;27.56;37.96
50592;BME280;36548;50.506;30.834;2023-07-13T06:14:57;99715.14;;;27.69;38.02
50592;BME280;36548;50.506;30.834;2023-07-13T06:16:07;99706.09;;;27.62;38.06
50592;BME280;36548;50.506;30.834;2023-07-13T06:17:24;99710.41;;;27.76;38.10
50592;BME280;36548;50.506;30.834;2023-07-13T06:18:35;99717.02;;;27.75;38.26
50592;BME280;36548;50.506;30.834;2023-07-13T06:19:51;99714.90;;;27.96;38.00
50592;BME280;36548;50.506;30.834;2023-07-13T06:21:05;99715.77;;;27.96;38.00
50592;BME280;36548;50.506;30.834;2023-07-13T06:22:18;99707.88;;;28.25;38.26
50592;BME280;36548;50.506;30.834;2023-07-13T06:23:27;99712.46;;;28.31;37.73
50592;BME280;36548;50.506;30.834;2023-07-13T06:24:37;99707.04;;;28.43;37.52
50592;BME280;36548;50.506;30.834;2023-07-13T06:25:47;99703.63;;;28.60;37.20
50592;BME280;36548;50.506;30.834;2023-07-13T06:27:03;99708.62;;;28.88;36.97
50592;BME280;36548;50.506;30.834;2023-07-13T06:28:12;99696.04;;;28.92;36.60